createdAt,value
2022-11-17T00:01:58.186Z,1.97
2022-11-17T00:04:26.844Z,2.00
2022-11-17T00:06:54.362Z,2.10
2022-11-17T00:09:21.889Z,1.83
2022-11-17T00:12:07.847Z,1.90
2022-11-17T00:14:37.545Z,2.13
2022-11-17T00:17:08.093Z,1.57
2022-11-17T00:19:53.590Z,1.77
2022-11-17T00:22:21.448Z,2.20
2022-11-17T00:24:49.583Z,2.50
2022-11-17T00:27:17.526Z,2.70
2022-11-17T00:29:45.138Z,2.40
2022-11-17T00:32:34.043Z,2.83
2022-11-17T00:35:01.858Z,2.37
2022-11-17T00:37:30.939Z,2.10
2022-11-17T00:40:00.926Z,2.27
2022-11-17T00:42:28.932Z,2.17
2022-11-17T00:44:56.434Z,1.90
2022-11-17T00:47:25.257Z,2.27
2022-11-17T00:49:52.754Z,2.17
2022-11-17T00:52:20.223Z,2.17
2022-11-17T00:54:47.752Z,2.20
2022-11-17T00:57:15.211Z,2.40
2022-11-17T00:59:42.893Z,2.33
2022-11-17T01:02:10.399Z,2.20
2022-11-17T01:04:39.243Z,2.20
2022-11-17T01:07:06.792Z,2.20
2022-11-17T01:09:34.329Z,2.03
2022-11-17T01:12:01.792Z,2.20
2022-11-17T01:14:30.759Z,2.20
2022-11-17T01:16:58.253Z,2.10
2022-11-17T01:19:26.132Z,2.10
2022-11-17T01:21:54.972Z,2.00
2022-11-17T01:24:22.509Z,1.80
2022-11-17T01:26:51.678Z,1.90
2022-11-17T01:29:19.274Z,2.10
2022-11-17T01:31:51.212Z,1.87
2022-11-17T01:34:19.044Z,2.03
2022-11-17T01:37:04.031Z,1.80
2022-11-17T01:39:33.193Z,1.60
2022-11-17T01:42:04.236Z,1.80
2022-11-17T01:45:00.064Z,1.70
2022-11-17T01:47:34.167Z,1.80
2022-11-17T01:50:07.590Z,1.80
2022-11-17T01:52:37.106Z,1.63
2022-11-17T01:55:09.548Z,1.67
2022-11-17T01:57:41.941Z,1.57
2022-11-17T02:00:11.538Z,1.50
2022-11-17T02:02:41.042Z,1.70
2022-11-17T02:05:20.053Z,1.63
2022-11-17T02:07:50.762Z,1.70
2022-11-17T02:10:19.867Z,1.30
2022-11-17T02:12:49.148Z,1.50
2022-11-17T02:15:16.664Z,1.50
2022-11-17T02:17:44.973Z,1.70
2022-11-17T02:20:15.117Z,1.70
2022-11-17T02:23:30.994Z,1.80
2022-11-17T02:26:24.735Z,1.50
2022-11-17T02:29:01.542Z,1.63
2022-11-17T02:31:39.729Z,1.60
2022-11-17T02:34:16.237Z,1.50
2022-11-17T02:36:51.503Z,1.87
2022-11-17T02:39:23.283Z,1.77
2022-11-17T02:41:57.172Z,1.63
2022-11-17T02:44:31.607Z,1.73
2022-11-17T02:47:05.270Z,1.83
2022-11-17T02:49:36.796Z,1.80
2022-11-17T02:52:07.001Z,1.50
2022-11-17T02:54:35.062Z,1.40
2022-11-17T02:57:02.799Z,1.60
2022-11-17T02:59:35.059Z,1.70
2022-11-17T03:02:28.201Z,1.40
2022-11-17T03:05:08.891Z,1.67
2022-11-17T03:07:50.876Z,1.40
2022-11-17T03:10:21.726Z,1.40
2022-11-17T03:12:56.622Z,1.60
2022-11-17T03:15:30.041Z,1.50
2022-11-17T03:18:08.722Z,1.70
2022-11-17T03:20:42.350Z,1.50
2022-11-17T03:23:14.756Z,1.40
2022-11-17T03:25:47.302Z,1.40
2022-11-17T03:28:17.982Z,1.53
2022-11-17T03:30:48.018Z,1.40
2022-11-17T03:33:19.186Z,1.70
2022-11-17T03:35:51.350Z,1.57
2022-11-17T03:38:21.626Z,1.40
2022-11-17T03:40:51.944Z,1.50
2022-11-17T03:43:22.162Z,1.50
2022-11-17T03:45:56.025Z,1.30
2022-11-17T03:48:29.498Z,1.50
2022-11-17T03:51:04.542Z,1.47
2022-11-17T03:53:33.143Z,1.53
2022-11-17T03:56:08.665Z,1.60
2022-11-17T03:58:42.368Z,1.30
2022-11-17T04:01:12.575Z,1.20
2022-11-17T04:03:40.953Z,1.30
2022-11-17T04:06:08.711Z,1.37
2022-11-17T04:08:36.237Z,1.67
2022-11-17T04:11:21.407Z,1.30
2022-11-17T04:14:06.488Z,1.10
2022-11-17T04:16:35.397Z,1.70
2022-11-17T04:19:02.914Z,1.70
2022-11-17T04:21:30.491Z,1.80
2022-11-17T04:23:58.397Z,1.90
2022-11-17T04:26:44.284Z,2.17
2022-11-17T04:29:11.828Z,1.80
2022-11-17T04:31:40.671Z,2.03
2022-11-17T04:34:08.260Z,1.77
2022-11-17T04:36:37.730Z,1.93
2022-11-17T04:39:05.283Z,1.97
2022-11-17T04:41:50.422Z,2.03
2022-11-17T04:44:19.005Z,2.10
2022-11-17T04:46:47.904Z,1.80
2022-11-17T04:49:16.743Z,1.90
2022-11-17T04:51:45.059Z,1.63
2022-11-17T04:54:14.856Z,1.70
2022-11-17T04:56:42.878Z,1.40
2022-11-17T04:59:11.032Z,1.60
2022-11-17T05:01:39.105Z,1.87
2022-11-17T05:04:09.941Z,1.60
2022-11-17T05:06:39.496Z,1.67
2022-11-17T05:09:08.543Z,1.73
2022-11-17T05:11:53.927Z,1.77
2022-11-17T05:14:23.167Z,1.60
2022-11-17T05:17:09.493Z,1.80
2022-11-17T05:19:40.685Z,1.63
2022-11-17T05:22:29.457Z,1.60
2022-11-17T05:24:56.347Z,1.70
2022-11-17T05:27:24.813Z,1.60
2022-11-17T05:29:52.362Z,1.70
2022-11-17T05:32:20.282Z,1.80
2022-11-17T05:34:49.155Z,1.50
2022-11-17T05:37:16.692Z,1.70
2022-11-17T05:39:44.216Z,1.80
2022-11-17T05:42:11.794Z,1.70
2022-11-17T05:44:39.948Z,1.40
2022-11-17T05:47:07.696Z,1.67
2022-11-17T05:49:35.207Z,1.50
2022-11-17T05:52:04.077Z,1.43
2022-11-17T05:54:31.604Z,1.43
2022-11-17T05:57:04.418Z,1.40
2022-11-17T05:59:35.090Z,1.40
2022-11-17T06:02:07.360Z,1.47
2022-11-17T06:04:35.700Z,1.60
2022-11-17T06:07:04.679Z,1.50
2022-11-17T06:09:35.004Z,1.50
2022-11-17T06:12:05.886Z,1.40
2022-11-17T06:14:34.272Z,1.50
2022-11-17T06:17:05.753Z,1.40
2022-11-17T06:19:38.854Z,1.40
2022-11-17T06:22:13.032Z,1.50
2022-11-17T06:24:42.737Z,1.57
2022-11-17T06:27:11.366Z,1.37
2022-11-17T06:29:43.832Z,1.60
2022-11-17T06:32:13.000Z,1.30
2022-11-17T06:34:40.778Z,1.70
2022-11-17T06:37:11.164Z,1.33
2022-11-17T06:39:38.775Z,1.60
2022-11-17T06:42:06.398Z,1.47
2022-11-17T06:44:33.919Z,1.60
2022-11-17T06:47:01.433Z,1.57
2022-11-17T06:49:29.345Z,1.70
2022-11-17T06:51:56.831Z,1.50
2022-11-17T06:54:25.909Z,1.47
2022-11-17T06:56:53.487Z,1.57
2022-11-17T06:59:21.066Z,1.60
2022-11-17T07:01:48.613Z,1.73
2022-11-17T07:04:16.422Z,1.67
2022-11-17T07:06:44.007Z,1.40
2022-11-17T07:09:11.579Z,1.63
2022-11-17T07:11:40.536Z,1.80
2022-11-17T07:14:08.259Z,1.70
2022-11-17T07:16:35.842Z,1.83
2022-11-17T07:19:03.700Z,1.80
2022-11-17T07:21:31.820Z,1.60
2022-11-17T07:23:59.551Z,1.50
2022-11-17T07:26:27.174Z,1.30
2022-11-17T07:28:56.373Z,1.73
2022-11-17T07:31:24.180Z,1.50
2022-11-17T07:33:51.723Z,1.70
2022-11-17T07:36:19.324Z,1.60
2022-11-17T07:38:47.434Z,1.40
2022-11-17T07:41:15.690Z,1.40
2022-11-17T07:43:43.601Z,1.63
2022-11-17T07:46:14.889Z,1.80
2022-11-17T07:48:43.636Z,1.50
2022-11-17T07:51:12.262Z,1.60
2022-11-17T07:53:39.815Z,1.67
2022-11-17T07:56:09.726Z,1.87
2022-11-17T07:58:38.468Z,1.40
2022-11-17T08:01:06.803Z,1.50
2022-11-17T08:03:35.881Z,1.30
2022-11-17T08:06:04.355Z,1.60
2022-11-17T08:08:32.384Z,1.53
2022-11-17T08:11:03.470Z,1.47
2022-11-17T08:13:31.193Z,1.50
2022-11-17T08:15:59.328Z,1.60
2022-11-17T08:18:27.552Z,1.70
2022-11-17T08:21:03.840Z,1.40
2022-11-17T08:23:31.472Z,1.30
2022-11-17T08:25:59.356Z,1.70
2022-11-17T08:28:27.122Z,1.50
2022-11-17T08:30:54.861Z,1.63
2022-11-17T08:33:22.761Z,1.50
2022-11-17T08:35:50.372Z,1.60
2022-11-17T08:38:19.389Z,1.83
2022-11-17T08:40:47.703Z,1.70
2022-11-17T08:43:15.264Z,1.60
2022-11-17T08:45:43.093Z,1.73
2022-11-17T08:48:10.818Z,1.80
2022-11-17T08:50:38.405Z,1.57
2022-11-17T08:53:06.001Z,1.70
2022-11-17T08:55:41.174Z,1.83
2022-11-17T08:58:09.367Z,1.70
2022-11-17T09:00:37.241Z,1.50
2022-11-17T09:03:07.414Z,1.60
2022-11-17T09:05:37.737Z,1.87
2022-11-17T09:08:29.752Z,1.63
2022-11-17T09:10:54.996Z,1.70
2022-11-17T09:13:22.528Z,1.90
2022-11-17T09:15:50.042Z,1.60
2022-11-17T09:18:17.624Z,1.63
2022-11-17T09:20:46.179Z,1.30
2022-11-17T09:23:13.802Z,2.03
2022-11-17T09:25:41.490Z,2.10
2022-11-17T09:28:10.370Z,2.00
2022-11-17T09:30:38.133Z,1.57
2022-11-17T09:33:05.679Z,1.70
2022-11-17T09:35:33.225Z,1.50
2022-11-17T09:38:01.598Z,1.10
2022-11-17T09:40:34.630Z,1.10
2022-11-17T09:43:09.631Z,1.37
2022-11-17T09:45:40.029Z,1.07
2022-11-17T09:48:39.384Z,1.40
2022-11-17T09:51:03.366Z,1.30
2022-11-17T09:53:39.821Z,1.27
2022-11-17T09:56:09.985Z,1.30
2022-11-17T09:58:45.108Z,1.33
2022-11-17T10:01:16.067Z,1.47
2022-11-17T10:03:46.577Z,1.50
2022-11-17T10:06:18.410Z,1.30
2022-11-17T10:08:54.553Z,1.60
2022-11-17T10:11:36.187Z,1.33
2022-11-17T10:14:11.638Z,1.30
2022-11-17T10:16:43.190Z,1.70
2022-11-17T10:19:16.558Z,1.33
2022-11-17T10:21:44.387Z,1.10
2022-11-17T10:24:11.945Z,1.30
2022-11-17T10:26:46.798Z,1.50
2022-11-17T10:29:16.191Z,1.40
2022-11-17T10:31:47.228Z,1.40
2022-11-17T10:34:38.842Z,1.40
2022-11-17T10:37:26.457Z,1.20
2022-11-17T10:40:13.552Z,1.20
2022-11-17T10:42:44.116Z,1.30
2022-11-17T10:45:17.999Z,1.20
2022-11-17T10:47:47.007Z,1.30
2022-11-17T10:50:23.704Z,1.57
2022-11-17T10:52:53.033Z,1.30
2022-11-17T10:55:24.610Z,1.40
2022-11-17T10:57:56.146Z,1.27
2022-11-17T11:00:27.579Z,1.30
2022-11-17T11:03:07.392Z,1.43
2022-11-17T11:05:34.943Z,1.17
2022-11-17T11:08:18.345Z,1.40
2022-11-17T11:10:50.378Z,1.50
2022-11-17T11:13:26.072Z,1.63
2022-11-17T11:15:54.320Z,1.43
2022-11-17T11:18:23.407Z,1.50
2022-11-17T11:20:57.323Z,1.60
2022-11-17T11:23:34.595Z,1.50
2022-11-17T11:26:14.431Z,1.40
2022-11-17T11:28:54.970Z,1.40
2022-11-17T11:31:32.866Z,1.43
2022-11-17T11:34:16.206Z,1.07
2022-11-17T11:36:45.967Z,1.70
2022-11-17T11:39:26.072Z,1.47
2022-11-17T11:42:18.157Z,1.50
2022-11-17T11:44:59.552Z,1.60
2022-11-17T11:47:43.249Z,1.40
2022-11-17T11:50:16.997Z,1.37
2022-11-17T11:52:48.884Z,1.60
2022-11-17T11:55:21.965Z,1.40
2022-11-17T11:57:53.319Z,1.60
2022-11-17T12:00:21.344Z,1.10
2022-11-17T12:02:52.893Z,1.40
2022-11-17T12:05:29.966Z,1.13
2022-11-17T12:08:07.392Z,1.10
2022-11-17T12:10:46.771Z,1.57
2022-11-17T12:13:16.923Z,1.40
2022-11-17T12:15:44.572Z,1.37
2022-11-17T12:18:15.145Z,1.33
2022-11-17T12:21:06.385Z,1.40
2022-11-17T12:23:43.604Z,1.57
2022-11-17T12:26:23.052Z,1.40
2022-11-17T12:28:50.613Z,1.30
2022-11-17T12:31:42.873Z,1.33
2022-11-17T12:34:22.472Z,1.20
2022-11-17T12:37:29.114Z,1.50
2022-11-17T12:40:03.796Z,1.13
2022-11-17T12:42:32.447Z,1.30
2022-11-17T12:45:02.289Z,1.17
2022-11-17T12:47:31.957Z,1.40
2022-11-17T12:50:34.704Z,1.60
2022-11-17T12:53:27.412Z,1.30
2022-11-17T12:56:21.093Z,1.60
2022-11-17T12:59:04.919Z,1.30
2022-11-17T13:01:43.215Z,1.40
2022-11-17T13:04:14.277Z,1.50
2022-11-17T13:07:00.616Z,1.43
2022-11-17T13:09:29.917Z,1.30
2022-11-17T13:12:04.153Z,1.60
2022-11-17T13:14:32.621Z,1.20
2022-11-17T13:17:01.156Z,1.40
2022-11-17T13:19:34.976Z,1.37
2022-11-17T13:22:05.497Z,1.70
2022-11-17T13:24:35.591Z,1.20
2022-11-17T13:27:08.172Z,1.30
2022-11-17T13:29:35.844Z,1.43
2022-11-17T13:32:13.542Z,1.30
2022-11-17T13:34:50.655Z,1.13
2022-11-17T13:37:20.489Z,1.20
2022-11-17T13:40:02.328Z,1.17
2022-11-17T13:42:34.283Z,0.90
2022-11-17T13:45:04.404Z,1.07
2022-11-17T13:47:46.536Z,1.20
2022-11-17T13:50:39.403Z,1.10
2022-11-17T13:53:26.107Z,0.80
2022-11-17T13:55:54.080Z,1.00
2022-11-17T13:58:33.071Z,0.93
2022-11-17T14:01:00.760Z,1.13
2022-11-17T14:03:39.651Z,0.93
2022-11-17T14:06:08.756Z,1.10
2022-11-17T14:08:37.817Z,0.90
2022-11-17T14:11:16.019Z,1.00
2022-11-17T14:13:46.628Z,1.00
2022-11-17T14:16:27.833Z,0.90
2022-11-17T14:19:06.445Z,1.30
2022-11-17T14:21:34.248Z,1.10
2022-11-17T14:24:05.470Z,1.00
2022-11-17T14:26:33.399Z,1.00
2022-11-17T14:29:03.081Z,1.10
2022-11-17T14:31:31.760Z,1.07
2022-11-17T14:33:59.732Z,1.20
2022-11-17T14:36:27.455Z,1.10
2022-11-17T14:38:55.835Z,1.13
2022-11-17T14:41:23.370Z,1.00
2022-11-17T14:43:51.314Z,1.17
2022-11-17T14:46:22.524Z,1.10
2022-11-17T14:48:50.176Z,1.00
2022-11-17T14:51:17.991Z,0.90
2022-11-17T14:53:46.518Z,1.00
2022-11-17T14:56:15.840Z,1.00
2022-11-17T14:58:43.388Z,1.20
2022-11-17T15:01:12.405Z,1.03
2022-11-17T15:03:41.444Z,1.00
2022-11-17T15:06:15.276Z,1.10
2022-11-17T15:08:46.357Z,1.13
2022-11-17T15:11:16.450Z,0.90
2022-11-17T15:13:44.154Z,1.00
2022-11-17T15:16:12.145Z,1.10
2022-11-17T15:18:41.004Z,0.90
2022-11-17T15:21:10.768Z,0.90
2022-11-17T15:23:40.557Z,1.30
2022-11-17T15:26:11.095Z,1.00
2022-11-17T15:28:38.645Z,1.07
2022-11-17T15:31:10.962Z,1.03
2022-11-17T15:33:40.481Z,1.00
2022-11-17T15:36:11.219Z,1.03
2022-11-17T15:38:39.853Z,1.00
2022-11-17T15:41:07.949Z,0.93
2022-11-17T15:43:37.184Z,1.00
2022-11-17T15:46:06.885Z,1.00
2022-11-17T15:48:38.684Z,0.80
2022-11-17T15:51:07.732Z,0.90
2022-11-17T15:53:38.460Z,0.80
2022-11-17T15:56:07.841Z,0.70
2022-11-17T15:58:35.966Z,0.70
2022-11-17T16:01:14.735Z,0.60
2022-11-17T16:03:44.661Z,0.90
2022-11-17T16:06:13.469Z,1.07
2022-11-17T16:08:42.518Z,0.90
2022-11-17T16:11:11.474Z,0.90
2022-11-17T16:13:39.185Z,0.80
2022-11-17T16:16:08.129Z,1.07
2022-11-17T16:18:38.467Z,1.33
2022-11-17T16:21:08.256Z,1.20
2022-11-17T16:23:40.038Z,1.03
2022-11-17T16:26:09.483Z,1.13
2022-11-17T16:28:37.460Z,1.33
2022-11-17T16:31:16.053Z,1.30
2022-11-17T16:33:49.218Z,1.17
2022-11-17T16:36:17.256Z,1.10
2022-11-17T16:38:59.713Z,1.20
2022-11-17T16:41:31.672Z,1.20
2022-11-17T16:43:59.875Z,1.20
2022-11-17T16:46:29.654Z,1.20
2022-11-17T16:48:58.362Z,1.30
2022-11-17T16:51:25.976Z,1.00
2022-11-17T16:53:57.564Z,1.30
2022-11-17T16:56:25.531Z,1.13
2022-11-17T16:58:54.892Z,1.10
2022-11-17T17:01:25.009Z,1.30
2022-11-17T17:03:56.676Z,1.20
2022-11-17T17:06:25.015Z,1.17
2022-11-17T17:08:56.064Z,1.10
2022-11-17T17:11:24.208Z,1.13
2022-11-17T17:13:51.877Z,1.47
2022-11-17T17:16:21.387Z,1.40
2022-11-17T17:18:49.520Z,1.60
2022-11-17T17:21:19.568Z,1.30
2022-11-17T17:23:47.117Z,1.50
2022-11-17T17:26:18.113Z,1.47
2022-11-17T17:28:47.036Z,1.10
2022-11-17T17:31:21.025Z,1.50
2022-11-17T17:33:51.310Z,1.50
2022-11-17T17:36:20.284Z,1.50
2022-11-17T17:38:53.595Z,1.30
2022-11-17T17:41:24.375Z,1.50
2022-11-17T17:43:56.658Z,1.80
2022-11-17T17:46:25.136Z,1.60
2022-11-17T17:48:54.021Z,1.50
2022-11-17T17:51:25.132Z,1.40
2022-11-17T17:53:53.218Z,1.40
2022-11-17T17:56:22.352Z,1.60
2022-11-17T17:58:50.744Z,1.53
2022-11-17T18:01:20.469Z,1.30
2022-11-17T18:03:49.454Z,1.60
2022-11-17T18:06:20.944Z,1.73
2022-11-17T18:08:49.336Z,1.40
2022-11-17T18:11:18.925Z,1.60
2022-11-17T18:13:48.044Z,1.50
2022-11-17T18:16:17.914Z,1.40
2022-11-17T18:18:46.158Z,1.50
2022-11-17T18:21:16.065Z,1.60
2022-11-17T18:23:45.469Z,1.70
2022-11-17T18:26:16.566Z,2.07
2022-11-17T18:28:45.845Z,2.10
2022-11-17T18:31:13.587Z,2.00
2022-11-17T18:33:41.149Z,1.80
2022-11-17T18:36:10.196Z,1.93
2022-11-17T18:38:38.703Z,1.90
2022-11-17T18:41:09.587Z,1.90
2022-11-17T18:43:38.315Z,2.00
2022-11-17T18:46:08.336Z,1.90
2022-11-17T18:48:37.020Z,1.90
2022-11-17T18:51:22.753Z,1.93
2022-11-17T18:53:51.482Z,2.03
2022-11-17T18:56:22.938Z,1.87
2022-11-17T18:58:50.624Z,1.83
2022-11-17T19:01:19.841Z,1.70
2022-11-17T19:03:49.434Z,1.90
2022-11-17T19:06:18.523Z,1.90
2022-11-17T19:08:47.986Z,1.90
2022-11-17T19:11:16.631Z,2.03
2022-11-17T19:13:46.214Z,1.90
2022-11-17T19:16:15.825Z,1.80
2022-11-17T19:18:44.672Z,1.90
2022-11-17T19:21:14.129Z,2.07
2022-11-17T19:23:48.016Z,2.20
2022-11-17T19:26:20.430Z,2.33
2022-11-17T19:28:49.493Z,2.37
2022-11-17T19:31:18.956Z,2.70
2022-11-17T19:33:48.077Z,2.60
2022-11-17T19:36:17.878Z,2.40
2022-11-17T19:38:48.069Z,2.80
2022-11-17T19:41:17.146Z,3.20
2022-11-17T19:43:45.765Z,2.87
2022-11-17T19:46:16.640Z,3.07
2022-11-17T19:48:45.140Z,3.03
2022-11-17T19:51:15.946Z,3.40
2022-11-17T19:53:43.874Z,3.50
2022-11-17T19:56:11.660Z,3.47
2022-11-17T19:58:41.247Z,3.27
2022-11-17T20:01:10.792Z,3.27
2022-11-17T20:03:40.737Z,3.47
2022-11-17T20:06:09.220Z,3.43
2022-11-17T20:08:37.196Z,3.30
2022-11-17T20:11:06.861Z,3.50
2022-11-17T20:13:35.135Z,3.30
2022-11-17T20:16:08.779Z,3.37
2022-11-17T20:18:40.808Z,3.47
2022-11-17T20:21:09.025Z,3.30
2022-11-17T20:23:38.532Z,3.37
2022-11-17T20:26:06.700Z,3.20
2022-11-17T20:28:35.232Z,3.17
2022-11-17T20:31:07.437Z,3.10
2022-11-17T20:33:35.320Z,3.50
2022-11-17T20:36:04.309Z,3.47
2022-11-17T20:38:31.968Z,2.87
2022-11-17T20:41:00.478Z,3.00
2022-11-17T20:43:29.057Z,2.70
2022-11-17T20:45:58.235Z,3.13
2022-11-17T20:48:27.371Z,2.50
2022-11-17T20:50:58.850Z,2.80
2022-11-17T20:53:28.426Z,2.73
2022-11-17T20:55:56.134Z,2.77
2022-11-17T20:58:24.046Z,3.27
2022-11-17T21:00:51.704Z,3.23
2022-11-17T21:03:19.647Z,3.33
2022-11-17T21:05:58.469Z,3.40
2022-11-17T21:08:30.587Z,3.40
2022-11-17T21:10:59.128Z,3.40
2022-11-17T21:13:27.484Z,3.50
2022-11-17T21:16:06.542Z,3.37
2022-11-17T21:18:34.862Z,3.70
2022-11-17T21:21:04.577Z,4.07
2022-11-17T21:23:33.483Z,4.33
2022-11-17T21:26:04.367Z,3.70
2022-11-17T21:28:32.149Z,3.67
2022-11-17T21:31:06.365Z,3.87
2022-11-17T21:33:34.173Z,4.37
2022-11-17T21:36:02.699Z,3.93
2022-11-17T21:38:30.598Z,4.20
2022-11-17T21:41:03.815Z,3.53
2022-11-17T21:43:32.033Z,3.30
2022-11-17T21:46:03.188Z,2.80
2022-11-17T21:48:30.970Z,2.50
2022-11-17T21:50:58.504Z,2.33
2022-11-17T21:53:26.191Z,2.27
2022-11-17T21:55:53.767Z,2.53
2022-11-17T21:58:22.673Z,2.90
2022-11-17T22:00:50.317Z,3.07
2022-11-17T22:03:17.936Z,3.43
2022-11-17T22:05:45.506Z,3.60
2022-11-17T22:08:13.088Z,3.93
2022-11-17T22:10:40.713Z,4.63
2022-11-17T22:13:08.516Z,4.90
2022-11-17T22:15:37.410Z,4.80
2022-11-17T22:18:05.161Z,4.87
2022-11-17T22:20:32.701Z,5.30
2022-11-17T22:23:00.515Z,5.37
2022-11-17T22:25:44.816Z,4.93
2022-11-17T22:28:14.633Z,5.23
2022-11-17T22:30:43.510Z,4.87
2022-11-17T22:33:11.064Z,4.50
2022-11-17T22:35:38.767Z,4.67
2022-11-17T22:38:06.310Z,5.10
2022-11-17T22:40:33.991Z,4.83
2022-11-17T22:43:04.452Z,4.97
2022-11-17T22:45:32.505Z,4.63
2022-11-17T22:48:02.637Z,4.67
2022-11-17T22:50:30.188Z,4.97
2022-11-17T22:52:57.706Z,5.30
2022-11-17T22:55:25.439Z,4.93
2022-11-17T22:57:52.955Z,4.60
2022-11-17T23:00:21.208Z,4.37
2022-11-17T23:02:48.890Z,4.60
2022-11-17T23:05:18.226Z,4.73
2022-11-17T23:07:45.917Z,4.43
2022-11-17T23:10:13.908Z,5.00
2022-11-17T23:12:41.849Z,4.43
2022-11-17T23:15:09.922Z,4.73
2022-11-17T23:17:37.846Z,4.80
2022-11-17T23:20:06.242Z,4.63
2022-11-17T23:22:35.873Z,4.03
2022-11-17T23:25:03.812Z,3.80
2022-11-17T23:27:31.513Z,3.87
2022-11-17T23:29:59.056Z,3.30
2022-11-17T23:32:26.635Z,3.60
2022-11-17T23:34:54.177Z,3.63
2022-11-17T23:37:21.771Z,3.40
2022-11-17T23:39:50.666Z,3.30
2022-11-17T23:42:18.312Z,3.50
2022-11-17T23:44:45.841Z,3.43
2022-11-17T23:47:13.511Z,3.23
2022-11-17T23:49:41.085Z,3.37
2022-11-17T23:52:08.602Z,4.53
2022-11-17T23:54:36.165Z,4.50
2022-11-17T23:57:05.045Z,4.40
2022-11-17T23:59:32.595Z,4.53
